createdAt,value
2022-12-16T00:01:29.889Z,3.40
2022-12-16T00:04:00.261Z,3.20
2022-12-16T00:06:34.572Z,2.80
2022-12-16T00:09:04.507Z,3.07
2022-12-16T00:11:33.951Z,3.17
2022-12-16T00:14:03.486Z,3.33
2022-12-16T00:16:33.034Z,3.20
2022-12-16T00:19:02.682Z,3.33
2022-12-16T00:21:32.104Z,3.67
2022-12-16T00:24:01.648Z,3.37
2022-12-16T00:26:31.271Z,2.90
2022-12-16T00:29:00.726Z,3.80
2022-12-16T00:31:30.242Z,3.10
2022-12-16T00:34:00.148Z,3.50
2022-12-16T00:36:29.590Z,3.40
2022-12-16T00:38:59.051Z,3.40
2022-12-16T00:41:28.490Z,4.70
2022-12-16T00:43:57.941Z,4.40
2022-12-16T00:46:27.411Z,3.47
2022-12-16T00:48:56.915Z,3.67
2022-12-16T00:51:26.707Z,3.37
2022-12-16T00:53:56.166Z,4.20
2022-12-16T00:56:25.615Z,3.60
2022-12-16T00:58:55.076Z,3.37
2022-12-16T01:01:24.715Z,4.17
2022-12-16T01:03:58.497Z,3.27
2022-12-16T01:06:27.954Z,3.30
2022-12-16T01:08:57.403Z,3.57
2022-12-16T01:11:26.848Z,3.37
2022-12-16T01:13:56.303Z,5.30
2022-12-16T01:16:25.997Z,5.80
2022-12-16T01:18:56.614Z,7.00
2022-12-16T01:21:26.062Z,4.63
2022-12-16T01:23:55.517Z,3.90
2022-12-16T01:26:25.517Z,3.90
2022-12-16T01:28:55.149Z,3.07
2022-12-16T01:31:25.910Z,3.17
2022-12-16T01:33:55.577Z,3.93
2022-12-16T01:36:26.468Z,3.90
2022-12-16T01:38:56.104Z,3.47
2022-12-16T01:41:25.571Z,4.07
2022-12-16T01:44:14.515Z,3.83
2022-12-16T01:46:46.747Z,3.63
2022-12-16T01:49:23.257Z,3.13
2022-12-16T01:51:55.600Z,3.57
2022-12-16T01:54:35.334Z,4.10
2022-12-16T01:57:09.399Z,3.70
2022-12-16T01:59:43.634Z,3.60
2022-12-16T02:02:15.139Z,3.33
2022-12-16T02:05:02.670Z,3.27
2022-12-16T02:07:32.136Z,3.20
2022-12-16T02:10:01.839Z,3.80
2022-12-16T02:12:59.644Z,2.90
2022-12-16T02:15:39.362Z,3.07
2022-12-16T02:18:53.091Z,2.67
2022-12-16T02:21:34.726Z,2.57
2022-12-16T02:24:32.980Z,2.70
2022-12-16T02:27:49.014Z,2.87
2022-12-16T02:30:47.009Z,2.40
2022-12-16T02:33:53.921Z,3.17
2022-12-16T02:36:51.811Z,3.00
2022-12-16T02:39:25.889Z,3.10
2022-12-16T02:42:17.718Z,3.43
2022-12-16T02:45:06.694Z,2.77
2022-12-16T02:47:36.141Z,2.53
2022-12-16T02:50:08.746Z,3.00
2022-12-16T02:52:38.196Z,2.77
2022-12-16T02:55:10.939Z,3.10
2022-12-16T02:58:13.358Z,3.37
2022-12-16T03:00:55.527Z,3.13
2022-12-16T03:03:45.139Z,4.03
2022-12-16T03:06:19.486Z,4.72
2022-12-16T03:08:53.559Z,4.43
2022-12-16T03:11:24.614Z,3.67
2022-12-16T03:13:57.550Z,3.30
2022-12-16T03:16:31.991Z,3.70
2022-12-16T03:19:08.677Z,3.30
2022-12-16T03:21:48.034Z,4.20
2022-12-16T03:24:18.041Z,3.87
2022-12-16T03:27:16.289Z,3.90
2022-12-16T03:30:22.413Z,3.30
2022-12-16T03:33:05.086Z,3.97
2022-12-16T03:35:44.822Z,3.53
2022-12-16T03:38:16.078Z,4.53
2022-12-16T03:40:46.678Z,6.27
2022-12-16T03:43:17.137Z,5.10
2022-12-16T03:45:49.230Z,6.00
2022-12-16T03:48:20.477Z,6.10
2022-12-16T03:50:50.011Z,4.27
2022-12-16T03:53:19.458Z,3.67
2022-12-16T03:55:48.913Z,3.70
2022-12-16T03:58:18.368Z,3.90
2022-12-16T04:00:47.898Z,4.63
2022-12-16T04:03:17.575Z,4.22
2022-12-16T04:05:48.079Z,3.10
2022-12-16T04:08:17.703Z,3.93
2022-12-16T04:11:05.113Z,3.27
2022-12-16T04:13:52.333Z,3.07
2022-12-16T04:16:39.859Z,2.67
2022-12-16T04:19:31.517Z,2.83
2022-12-16T04:22:18.808Z,3.10
2022-12-16T04:24:48.313Z,2.53
2022-12-16T04:27:27.583Z,2.77
2022-12-16T04:30:14.704Z,3.00
2022-12-16T04:33:01.922Z,3.63
2022-12-16T04:35:49.199Z,3.20
2022-12-16T04:38:36.568Z,4.50
2022-12-16T04:41:24.012Z,4.73
2022-12-16T04:44:11.616Z,3.98
2022-12-16T04:46:59.226Z,2.97
2022-12-16T04:49:46.369Z,3.20
2022-12-16T04:52:34.375Z,3.10
2022-12-16T04:55:21.829Z,3.00
2022-12-16T04:58:15.641Z,4.10
2022-12-16T05:01:03.263Z,4.20
2022-12-16T05:03:51.628Z,4.33
2022-12-16T05:06:39.273Z,3.62
2022-12-16T05:09:27.052Z,3.47
2022-12-16T05:12:14.238Z,4.28
2022-12-16T05:15:01.552Z,3.80
2022-12-16T05:17:49.089Z,3.27
2022-12-16T05:20:36.100Z,3.33
2022-12-16T05:23:23.455Z,3.50
2022-12-16T05:26:10.952Z,2.87
2022-12-16T05:28:58.503Z,3.30
2022-12-16T05:31:45.683Z,2.93
2022-12-16T05:34:32.923Z,2.70
2022-12-16T05:37:20.527Z,2.47
2022-12-16T05:40:07.747Z,2.50
2022-12-16T05:42:54.695Z,2.62
2022-12-16T05:45:42.089Z,2.77
2022-12-16T05:48:29.642Z,2.63
2022-12-16T05:51:03.432Z,3.43
2022-12-16T05:53:50.940Z,3.00
2022-12-16T05:56:38.136Z,3.15
2022-12-16T05:59:25.385Z,2.95
2022-12-16T06:02:13.069Z,3.10
2022-12-16T06:05:00.736Z,3.40
2022-12-16T06:07:48.172Z,3.03
2022-12-16T06:10:35.690Z,4.03
2022-12-16T06:13:23.056Z,3.40
2022-12-16T06:16:10.735Z,3.20
2022-12-16T06:18:58.106Z,3.50
2022-12-16T06:21:45.603Z,3.10
2022-12-16T06:24:32.750Z,6.40
2022-12-16T06:27:20.425Z,5.37
2022-12-16T06:30:07.706Z,4.07
2022-12-16T06:32:54.921Z,3.98
2022-12-16T06:35:42.106Z,3.40
2022-12-16T06:38:29.340Z,3.20
2022-12-16T06:41:16.524Z,3.30
2022-12-16T06:44:04.028Z,2.83
2022-12-16T06:46:51.381Z,2.87
2022-12-16T06:49:38.720Z,3.10
2022-12-16T06:52:26.200Z,3.72
2022-12-16T06:55:13.615Z,4.37
2022-12-16T06:58:01.864Z,3.55
2022-12-16T07:00:50.151Z,3.53
2022-12-16T07:03:37.838Z,3.20
2022-12-16T07:06:25.510Z,3.12
2022-12-16T07:09:12.977Z,2.80
2022-12-16T07:12:00.241Z,3.30
2022-12-16T07:14:48.024Z,3.27
2022-12-16T07:17:35.264Z,3.35
2022-12-16T07:20:24.723Z,3.85
2022-12-16T07:23:19.309Z,3.98
2022-12-16T07:26:01.377Z,4.08
2022-12-16T07:28:48.699Z,3.77
2022-12-16T07:31:35.901Z,3.70
2022-12-16T07:34:22.995Z,3.60
2022-12-16T07:37:09.898Z,3.67
2022-12-16T07:39:57.428Z,3.98
2022-12-16T07:42:44.920Z,3.20
2022-12-16T07:45:32.285Z,3.42
2022-12-16T07:48:19.623Z,3.80
2022-12-16T07:51:06.934Z,3.10
2022-12-16T07:53:54.266Z,2.83
2022-12-16T07:56:42.024Z,2.50
2022-12-16T07:59:29.743Z,2.83
2022-12-16T08:02:17.210Z,3.20
2022-12-16T08:05:04.505Z,3.67
2022-12-16T08:07:52.007Z,3.22
2022-12-16T08:10:39.144Z,3.70
2022-12-16T08:13:26.414Z,3.17
2022-12-16T08:16:13.795Z,3.30
2022-12-16T08:19:04.900Z,5.45
2022-12-16T08:21:50.949Z,4.97
2022-12-16T08:24:38.210Z,5.33
2022-12-16T08:27:25.455Z,4.00
2022-12-16T08:30:12.831Z,3.65
2022-12-16T08:33:05.165Z,4.27
2022-12-16T08:35:49.264Z,4.30
2022-12-16T08:38:36.625Z,3.60
2022-12-16T08:41:24.185Z,4.80
2022-12-16T08:44:11.627Z,4.33
2022-12-16T08:46:58.934Z,4.30
2022-12-16T08:49:46.676Z,3.70
2022-12-16T08:52:33.813Z,4.10
2022-12-16T08:55:26.135Z,3.30
2022-12-16T08:58:14.623Z,3.67
2022-12-16T09:01:07.165Z,4.40
2022-12-16T09:03:51.165Z,4.10
2022-12-16T09:06:40.659Z,4.47
2022-12-16T09:09:29.026Z,5.00
2022-12-16T09:12:02.864Z,4.03
2022-12-16T09:14:49.791Z,3.77
2022-12-16T09:17:37.232Z,3.87
2022-12-16T09:20:25.456Z,3.63
2022-12-16T09:23:12.667Z,4.70
2022-12-16T09:26:00.456Z,4.80
2022-12-16T09:28:47.776Z,4.70
2022-12-16T09:31:35.250Z,4.33
2022-12-16T09:34:24.808Z,5.10
2022-12-16T09:37:11.713Z,4.63
2022-12-16T09:39:58.911Z,4.10
2022-12-16T09:42:56.137Z,8.27
2022-12-16T09:45:57.284Z,8.63
2022-12-16T09:49:06.783Z,7.60
2022-12-16T09:51:58.921Z,7.07
2022-12-16T09:54:50.614Z,5.53
2022-12-16T09:57:40.419Z,6.03
2022-12-16T10:00:32.029Z,6.30
2022-12-16T10:03:22.162Z,5.57
2022-12-16T10:06:32.175Z,5.10
2022-12-16T10:09:44.094Z,4.60
2022-12-16T10:13:10.942Z,5.50
2022-12-16T10:16:20.847Z,4.40
2022-12-16T10:19:21.682Z,5.07
2022-12-16T10:22:34.240Z,6.17
2022-12-16T10:25:29.078Z,4.13
2022-12-16T10:28:21.109Z,3.97
2022-12-16T10:31:09.604Z,4.17
2022-12-16T10:33:57.151Z,4.40
2022-12-16T10:36:45.746Z,5.10
2022-12-16T10:39:51.836Z,6.00
2022-12-16T10:42:43.374Z,4.00
2022-12-16T10:45:59.132Z,4.07
2022-12-16T10:48:56.233Z,4.53
2022-12-16T10:55:19.130Z,4.90
2022-12-16T10:58:43.483Z,4.40
2022-12-16T11:01:47.330Z,3.70
2022-12-16T11:04:57.036Z,3.97
2022-12-16T11:08:06.458Z,6.20
2022-12-16T11:11:02.722Z,5.00
2022-12-16T11:13:55.965Z,4.80
2022-12-16T11:16:47.118Z,5.33
2022-12-16T11:19:47.938Z,4.57
2022-12-16T11:22:42.432Z,4.83
2022-12-16T11:25:38.848Z,5.17
2022-12-16T11:28:37.141Z,4.70
2022-12-16T11:31:33.502Z,4.73
2022-12-16T11:34:22.735Z,4.63
2022-12-16T11:37:11.859Z,6.80
2022-12-16T11:39:50.077Z,4.30
2022-12-16T11:42:44.101Z,4.73
2022-12-16T11:45:38.232Z,5.63
2022-12-16T11:48:38.606Z,6.10
2022-12-16T11:51:30.213Z,5.47
2022-12-16T11:54:33.645Z,5.17
2022-12-16T11:57:25.192Z,5.47
2022-12-16T12:00:17.065Z,5.43
2022-12-16T12:03:11.823Z,4.53
2022-12-16T12:06:20.279Z,4.77
2022-12-16T12:09:36.509Z,5.20
2022-12-16T12:12:47.547Z,5.20
2022-12-16T12:15:54.145Z,5.47
2022-12-16T12:18:49.504Z,4.67
2022-12-16T12:21:46.687Z,5.20
2022-12-16T12:25:01.787Z,5.20
2022-12-16T12:28:17.881Z,4.97
2022-12-16T12:31:09.696Z,4.70
2022-12-16T12:34:01.346Z,4.40
2022-12-16T12:37:04.914Z,5.40
2022-12-16T12:40:02.173Z,4.43
2022-12-16T12:43:08.616Z,4.60
2022-12-16T12:46:09.735Z,5.13
2022-12-16T12:49:07.670Z,5.00
2022-12-16T12:52:02.699Z,4.90
2022-12-16T12:55:00.136Z,4.07
2022-12-16T12:57:49.557Z,4.40
2022-12-16T13:00:42.043Z,5.00
2022-12-16T13:03:37.319Z,3.97
2022-12-16T13:06:26.597Z,4.33
2022-12-16T13:09:19.266Z,4.63
2022-12-16T13:12:28.018Z,4.03
2022-12-16T13:15:31.901Z,4.13
2022-12-16T13:18:23.864Z,3.27
2022-12-16T13:21:16.979Z,3.93
2022-12-16T13:24:06.056Z,3.93
2022-12-16T13:26:55.274Z,4.17
2022-12-16T13:30:07.783Z,3.97
2022-12-16T13:32:57.006Z,4.13
2022-12-16T13:35:44.773Z,4.50
2022-12-16T13:38:41.531Z,5.10
2022-12-16T13:41:54.704Z,4.57
2022-12-16T13:45:06.501Z,4.37
2022-12-16T13:48:07.443Z,3.90
2022-12-16T13:51:05.583Z,4.40
2022-12-16T13:53:57.781Z,4.30
2022-12-16T13:57:01.766Z,3.43
2022-12-16T13:59:51.873Z,3.27
2022-12-16T14:03:01.412Z,4.10
2022-12-16T14:05:53.139Z,3.50
2022-12-16T14:08:45.416Z,3.53
2022-12-16T14:11:42.948Z,3.40
2022-12-16T14:14:43.481Z,4.20
2022-12-16T14:17:41.510Z,3.47
2022-12-16T14:20:47.916Z,3.67
2022-12-16T14:23:57.620Z,3.60
2022-12-16T14:26:38.932Z,3.00
2022-12-16T14:29:42.312Z,3.83
2022-12-16T14:32:51.651Z,3.20
2022-12-16T14:35:43.582Z,3.40
2022-12-16T14:38:49.596Z,3.93
2022-12-16T14:41:43.974Z,3.30
2022-12-16T14:44:43.886Z,3.37
2022-12-16T14:47:35.644Z,3.80
2022-12-16T14:50:25.233Z,3.40
2022-12-16T14:53:23.287Z,3.37
2022-12-16T14:56:10.605Z,3.63
2022-12-16T14:58:57.789Z,3.23
2022-12-16T15:01:46.839Z,3.10
2022-12-16T15:04:40.550Z,3.27
2022-12-16T15:07:33.124Z,3.20
2022-12-16T15:10:21.597Z,4.87
2022-12-16T15:13:09.968Z,4.10
2022-12-16T15:16:01.508Z,3.70
2022-12-16T15:18:59.210Z,3.70
2022-12-16T15:21:46.761Z,3.20
2022-12-16T15:24:42.112Z,3.27
2022-12-16T15:27:45.922Z,3.50
2022-12-16T15:31:00.560Z,3.40
2022-12-16T15:33:52.937Z,3.90
2022-12-16T15:36:55.308Z,4.20
2022-12-16T15:39:55.951Z,3.50
2022-12-16T15:42:50.953Z,4.00
2022-12-16T15:45:45.642Z,3.90
2022-12-16T15:48:46.195Z,3.47
2022-12-16T15:51:43.237Z,3.70
2022-12-16T15:54:42.372Z,3.67
2022-12-16T15:57:52.305Z,3.20
2022-12-16T16:00:46.439Z,4.37
2022-12-16T16:03:47.143Z,3.80
2022-12-16T16:06:45.758Z,3.50
2022-12-16T16:09:46.162Z,3.00
2022-12-16T16:12:37.393Z,3.33
2022-12-16T16:15:27.186Z,3.40
2022-12-16T16:18:18.973Z,3.30
2022-12-16T16:21:07.044Z,3.33
2022-12-16T16:23:54.713Z,4.10
2022-12-16T16:26:46.161Z,3.63
2022-12-16T16:29:33.709Z,3.50
2022-12-16T16:32:22.251Z,3.50
2022-12-16T16:35:09.390Z,3.57
2022-12-16T16:37:57.014Z,3.53
2022-12-16T16:40:54.572Z,3.37
2022-12-16T16:43:42.400Z,3.40
2022-12-16T16:46:57.928Z,3.37
2022-12-16T16:49:52.538Z,3.33
2022-12-16T16:52:43.179Z,3.83
2022-12-16T16:55:43.131Z,4.00
2022-12-16T16:58:41.157Z,4.00
2022-12-16T17:01:32.095Z,4.03
2022-12-16T17:04:19.480Z,3.10
2022-12-16T17:07:07.034Z,3.67
2022-12-16T17:09:54.572Z,3.83
2022-12-16T17:12:42.756Z,3.80
2022-12-16T17:15:44.304Z,3.87
2022-12-16T17:18:31.594Z,3.43
2022-12-16T17:21:18.721Z,3.50
2022-12-16T17:24:06.450Z,3.30
2022-12-16T17:26:53.894Z,3.77
2022-12-16T17:29:45.996Z,3.80
2022-12-16T17:32:33.349Z,3.63
2022-12-16T17:35:20.562Z,3.37
2022-12-16T17:38:08.106Z,3.53
2022-12-16T17:40:54.980Z,3.37
2022-12-16T17:43:42.502Z,3.13
2022-12-16T17:46:31.385Z,3.60
2022-12-16T17:49:19.515Z,3.40
2022-12-16T17:52:02.646Z,3.30
2022-12-16T17:54:50.148Z,3.20
2022-12-16T17:57:37.395Z,3.47
2022-12-16T18:00:25.341Z,3.17
2022-12-16T18:03:12.766Z,3.43
2022-12-16T18:06:00.306Z,3.73
2022-12-16T18:08:43.357Z,4.00
2022-12-16T18:11:32.560Z,4.13
2022-12-16T18:14:20.007Z,3.60
2022-12-16T18:17:07.334Z,3.70
2022-12-16T18:19:54.818Z,3.53
2022-12-16T18:22:41.944Z,3.40
2022-12-16T18:25:29.259Z,3.50
2022-12-16T18:28:16.494Z,3.00
2022-12-16T18:31:03.780Z,3.27
2022-12-16T18:33:51.571Z,3.43
2022-12-16T18:36:38.845Z,3.23
2022-12-16T18:39:26.145Z,4.20
2022-12-16T18:42:13.385Z,3.50
2022-12-16T18:45:01.458Z,3.47
2022-12-16T18:47:48.891Z,2.97
2022-12-16T18:50:38.286Z,3.10
2022-12-16T18:53:26.324Z,2.93
2022-12-16T18:56:26.488Z,3.00
2022-12-16T18:59:14.727Z,3.73
2022-12-16T19:02:02.124Z,3.90
2022-12-16T19:04:49.143Z,3.77
2022-12-16T19:07:36.296Z,4.40
2022-12-16T19:10:24.143Z,3.50
2022-12-16T19:13:19.206Z,3.60
2022-12-16T19:16:17.256Z,3.33
2022-12-16T19:19:06.595Z,3.87
2022-12-16T19:21:56.677Z,3.40
2022-12-16T19:24:43.132Z,3.03
2022-12-16T19:27:31.101Z,3.03
2022-12-16T19:30:18.534Z,3.40
2022-12-16T19:33:07.907Z,3.40
2022-12-16T19:35:55.027Z,3.37
2022-12-16T19:38:44.184Z,3.47
2022-12-16T19:41:36.855Z,2.97
2022-12-16T19:44:25.081Z,3.30
2022-12-16T19:47:12.261Z,3.40
2022-12-16T19:50:00.437Z,3.70
2022-12-16T19:52:48.469Z,3.50
2022-12-16T19:55:36.101Z,3.30
2022-12-16T19:58:23.292Z,3.37
2022-12-16T20:01:10.481Z,3.63
2022-12-16T20:03:57.767Z,3.70
2022-12-16T20:06:44.918Z,3.10
2022-12-16T20:09:32.625Z,3.10
2022-12-16T20:12:20.049Z,3.60
2022-12-16T20:15:07.313Z,3.30
2022-12-16T20:17:56.095Z,3.73
2022-12-16T20:20:43.503Z,3.50
2022-12-16T20:23:30.825Z,4.10
2022-12-16T20:26:20.722Z,3.60
2022-12-16T20:29:04.889Z,4.07
2022-12-16T20:31:52.889Z,3.60
2022-12-16T20:34:42.235Z,3.53
2022-12-16T20:37:29.519Z,3.53
2022-12-16T20:40:16.770Z,3.27
2022-12-16T20:43:04.002Z,3.17
2022-12-16T20:45:51.809Z,3.60
2022-12-16T20:48:39.068Z,2.83
2022-12-16T20:51:27.803Z,3.33
2022-12-16T20:54:15.481Z,3.27
2022-12-16T20:57:03.399Z,3.43
2022-12-16T20:59:51.722Z,3.60
2022-12-16T21:02:39.108Z,3.37
2022-12-16T21:05:27.506Z,3.70
2022-12-16T21:08:14.847Z,3.93
2022-12-16T21:11:01.972Z,3.60
2022-12-16T21:13:49.683Z,4.17
2022-12-16T21:16:37.729Z,3.60
2022-12-16T21:22:13.816Z,3.72
2022-12-16T21:25:01.338Z,4.30
2022-12-16T21:27:48.717Z,3.53
2022-12-16T21:30:36.158Z,4.10
2022-12-16T21:33:23.818Z,3.60
2022-12-16T21:36:12.904Z,3.90
2022-12-16T21:39:00.192Z,3.57
2022-12-16T21:41:47.666Z,3.33
2022-12-16T21:44:34.872Z,3.50
2022-12-16T21:47:22.428Z,3.07
2022-12-16T21:50:09.750Z,3.20
2022-12-16T21:52:56.903Z,3.20
2022-12-16T21:55:44.353Z,3.43
2022-12-16T21:58:32.481Z,3.30
2022-12-16T22:01:21.794Z,3.47
2022-12-16T22:04:09.252Z,3.37
2022-12-16T22:06:56.869Z,3.77
2022-12-16T22:09:44.353Z,3.40
2022-12-16T22:12:31.542Z,3.07
2022-12-16T22:15:19.020Z,2.87
2022-12-16T22:18:06.342Z,3.07
2022-12-16T22:20:53.673Z,3.43
2022-12-16T22:23:47.439Z,3.07
2022-12-16T22:26:34.619Z,3.40
2022-12-16T22:29:22.171Z,3.40
2022-12-16T22:32:09.411Z,3.57
2022-12-16T22:34:56.841Z,3.23
2022-12-16T22:37:43.988Z,3.07
2022-12-16T22:43:26.984Z,3.33
2022-12-16T22:46:20.861Z,3.00
2022-12-16T22:49:08.194Z,3.63
2022-12-16T22:51:55.889Z,3.43
2022-12-16T22:54:44.087Z,3.90
2022-12-16T22:57:31.684Z,3.53
2022-12-16T23:00:19.227Z,3.40
2022-12-16T23:03:06.613Z,3.00
2022-12-16T23:05:53.569Z,3.13
2022-12-16T23:08:40.978Z,3.30
2022-12-16T23:11:39.160Z,3.23
2022-12-16T23:14:26.562Z,3.70
2022-12-16T23:17:14.032Z,3.50
2022-12-16T23:20:01.484Z,4.07
2022-12-16T23:22:51.612Z,3.80
2022-12-16T23:25:39.364Z,3.73
2022-12-16T23:28:26.567Z,3.83
2022-12-16T23:31:17.169Z,3.30
2022-12-16T23:34:04.864Z,3.20
2022-12-16T23:36:52.263Z,3.80
2022-12-16T23:39:40.704Z,3.13
2022-12-16T23:42:28.270Z,3.40
2022-12-16T23:45:15.677Z,3.17
2022-12-16T23:48:02.887Z,3.10
2022-12-16T23:50:50.607Z,3.60
2022-12-16T23:53:38.698Z,4.00
2022-12-16T23:56:27.628Z,3.60
2022-12-16T23:59:14.801Z,3.70
